Time;durP1;ratioP1;P1;durP2;ratioP2;P2;SDS_P1;SDS_P2;PMS_P1;PMS_P2;Temp;Humidity;BMP_temperature;BMP_pressure;BME280_temperature;BME280_humidity;BME280_pressure;Samples;Min_cycle;Max_cycle;Signal;HPM_P1;HPM_P2
2023/01/05 00:01:06;;;;;;;10.60;5.88;;;26.10;89.30;;;;;;5104806;28;20036;-57
2023/01/05 00:03:34;;;;;;;6.88;5.10;;;26.10;89.40;;;;;;5105717;28;20024;-57
2023/01/05 00:06:12;;;;;;;10.85;5.60;;;26.10;89.30;;;;;;5104834;28;20020;-57
2023/01/05 00:08:39;;;;;;;10.88;5.90;;;26.10;89.30;;;;;;5105125;28;20032;-58
2023/01/05 00:22:29;;;;;;;9.63;5.65;;;26.10;89.30;;;;;;5104399;28;20031;-57
2023/01/05 00:25:17;;;;;;;13.27;5.55;;;26.10;89.20;;;;;;5104610;28;20016;-57
2023/01/05 00:27:50;;;;;;;10.38;5.80;;;26.10;89.10;;;;;;5104782;28;20342;-57
2023/01/05 00:30:21;;;;;;;8.93;5.28;;;26.00;89.20;;;;;;5104486;28;20031;-60
2023/01/05 00:32:48;;;;;;;10.15;5.45;;;26.00;89.40;;;;;;5104428;28;20028;-56
2023/01/05 00:35:15;;;;;;;10.15;5.68;;;26.00;89.50;;;;;;5104422;28;20012;-56
2023/01/05 00:37:42;;;;;;;9.43;5.65;;;26.00;89.50;;;;;;5104598;28;20012;-55
2023/01/05 00:40:15;;;;;;;11.20;5.80;;;26.00;89.50;;;;;;5104011;28;20035;-59
2023/01/05 00:42:46;;;;;;;11.55;5.97;;;26.00;89.50;;;;;;5104463;28;20319;-61
2023/01/05 00:45:14;;;;;;;10.60;6.55;;;26.00;89.40;;;;;;5104040;28;20031;-58
2023/01/05 00:47:41;;;;;;;9.25;5.80;;;26.00;89.30;;;;;;5104594;28;20347;-54
2023/01/05 00:50:11;;;;;;;11.23;6.60;;;26.00;89.10;;;;;;5104235;28;20028;-55
2023/01/05 00:52:38;;;;;;;10.25;5.97;;;26.00;89.10;;;;;;5104189;28;20028;-60
2023/01/05 00:55:05;;;;;;;11.95;5.88;;;26.00;89.00;;;;;;5104221;28;20008;-57
2023/01/05 00:57:33;;;;;;;11.90;6.25;;;26.00;88.80;;;;;;5103157;28;20039;-57
2023/01/05 01:00:02;;;;;;;11.02;6.40;;;26.00;88.60;;;;;;5104035;28;20023;-57
2023/01/05 01:02:29;;;;;;;17.45;6.50;;;26.00;88.50;;;;;;5104165;28;20028;-56
2023/01/05 01:04:58;;;;;;;10.57;6.35;;;26.00;88.50;;;;;;5104129;28;20032;-55
2023/01/05 01:07:24;;;;;;;12.50;7.28;;;26.00;88.40;;;;;;5103795;28;20054;-63
2023/01/05 01:09:51;;;;;;;10.75;6.30;;;26.00;88.40;;;;;;5104066;28;20330;-55
2023/01/05 01:12:20;;;;;;;9.63;6.55;;;26.00;88.40;;;;;;5103971;28;20028;-56
2023/01/05 01:14:48;;;;;;;16.75;7.20;;;26.00;88.50;;;;;;5103779;28;20242;-58
2023/01/05 01:17:16;;;;;;;12.98;7.25;;;25.90;88.70;;;;;;5103740;28;20028;-57
2023/01/05 01:19:45;;;;;;;10.38;5.38;;;25.90;88.90;;;;;;5107138;28;20040;-57
2023/01/05 01:22:12;;;;;;;9.10;5.82;;;25.80;89.10;;;;;;5118314;28;20315;-58
2023/01/05 01:24:39;;;;;;;13.10;6.15;;;25.60;89.90;;;;;;5124569;28;20035;-57
2023/01/05 01:27:05;;;;;;;11.43;5.40;;;25.30;90.40;;;;;;5124101;28;20077;-58
2023/01/05 01:29:32;;;;;;;10.50;5.65;;;25.20;90.60;;;;;;5124136;28;20113;-59
2023/01/05 01:32:00;;;;;;;13.30;5.78;;;25.20;90.40;;;;;;5124406;28;20016;-60
2023/01/05 01:34:30;;;;;;;10.55;5.35;;;25.10;90.20;;;;;;5124619;28;20038;-60
2023/01/05 01:36:56;;;;;;;12.30;5.53;;;25.00;90.20;;;;;;5123838;28;20088;-57
2023/01/05 01:39:23;;;;;;;9.10;4.90;;;25.00;89.90;;;;;;5124613;28;20069;-57
2023/01/05 01:41:49;;;;;;;9.80;5.22;;;25.00;90.10;;;;;;5124185;28;20039;-58
2023/01/05 01:44:48;;;;;;;9.98;5.18;;;24.90;90.20;;;;;;5124444;28;20047;-59
2023/01/05 01:47:22;;;;;;;11.23;5.10;;;24.90;90.20;;;;;;5125568;28;20227;-58
2023/01/05 01:49:51;;;;;;;12.55;5.60;;;24.90;90.20;;;;;;5144712;28;20030;-59
2023/01/05 01:52:18;;;;;;;11.02;5.90;;;24.90;90.10;;;;;;5144865;27;20020;-58
2023/01/05 01:54:45;;;;;;;11.82;5.60;;;24.90;90.00;;;;;;5148209;27;20019;-58
2023/01/05 01:57:12;;;;;;;11.23;5.63;;;24.90;90.10;;;;;;5148208;27;20023;-58
2023/01/05 01:59:39;;;;;;;11.80;5.85;;;24.90;90.40;;;;;;5147471;27;20094;-57
2023/01/05 02:02:07;;;;;;;9.45;5.32;;;24.90;90.20;;;;;;5148177;27;20030;-57
2023/01/05 02:04:36;;;;;;;14.32;5.80;;;25.00;90.10;;;;;;5148265;27;20050;-57
2023/01/05 02:07:04;;;;;;;11.60;6.15;;;25.10;90.00;;;;;;5148019;27;20097;-55
2023/01/05 02:09:31;;;;;;;10.57;5.63;;;25.30;90.00;;;;;;5147999;27;20369;-55
2023/01/05 02:12:36;;;;;;;14.50;6.38;;;25.30;89.90;;;;;;5125795;27;20028;-57
2023/01/05 02:15:28;;;;;;;10.90;6.03;;;25.40;89.50;;;;;;5085848;28;20040;-58
2023/01/05 02:18:13;;;;;;;13.43;7.18;;;25.50;89.40;;;;;;5114690;28;20118;-55
2023/01/05 02:20:47;;;;;;;12.88;7.50;;;25.50;89.10;;;;;;5107694;28;20030;-56
2023/01/05 02:23:35;;;;;;;12.40;6.78;;;25.60;88.90;;;;;;5121055;28;20034;-56
2023/01/05 02:26:37;;;;;;;11.40;6.57;;;25.60;88.50;;;;;;5107452;28;20049;-60
2023/01/05 02:29:34;;;;;;;10.40;5.77;;;25.70;88.40;;;;;;5134241;27;20058;-54
2023/01/05 02:32:04;;;;;;;10.95;6.05;;;25.70;88.20;;;;;;5115488;27;20024;-54
2023/01/05 02:34:56;;;;;;;12.32;6.00;;;25.70;88.30;;;;;;5113918;28;20055;-55
2023/01/05 02:37:38;;;;;;;12.60;6.25;;;25.70;87.90;;;;;;5075409;28;20056;-55
2023/01/05 02:40:13;;;;;;;10.98;6.05;;;25.70;87.70;;;;;;5106442;28;20028;-55
2023/01/05 02:42:42;;;;;;;9.13;5.50;;;25.70;87.70;;;;;;5106347;28;20221;-55
2023/01/05 02:45:09;;;;;;;9.65;5.32;;;25.70;87.70;;;;;;5106625;28;20016;-56
2023/01/05 02:47:41;;;;;;;15.55;6.00;;;25.70;87.60;;;;;;5106580;28;20047;-57
2023/01/05 02:50:30;;;;;;;7.55;5.60;;;25.70;87.70;;;;;;5134866;27;20060;-56
2023/01/05 02:53:24;;;;;;;8.57;5.43;;;25.70;87.60;;;;;;5147794;27;20023;-56
2023/01/05 02:56:22;;;;;;;9.75;5.53;;;25.70;87.70;;;;;;5147423;27;20035;-56
2023/01/05 02:59:15;;;;;;;9.70;5.35;;;25.70;87.80;;;;;;5127683;27;20031;-54
2023/01/05 03:02:11;;;;;;;9.48;5.65;;;25.70;87.80;;;;;;5099730;27;20365;-56
2023/01/05 03:05:07;;;;;;;11.70;5.80;;;25.70;87.90;;;;;;5119726;27;20103;-55
2023/01/05 03:07:40;;;;;;;9.40;4.97;;;25.70;88.00;;;;;;5123536;28;20036;-56
2023/01/05 03:15:44;;;;;;;7.00;4.97;;;25.70;87.90;;;;;;5126505;28;20058;-58
2023/01/05 03:18:16;;;;;;;14.68;5.50;;;25.70;88.00;;;;;;5128363;27;20280;-56
2023/01/05 03:20:51;;;;;;;9.38;5.68;;;25.60;88.00;;;;;;5135598;27;20124;-58
2023/01/05 03:35:37;;;;;;;9.05;5.35;;;25.60;88.10;;;;;;5114437;28;20050;-54
2023/01/05 03:38:30;;;;;;;9.25;5.40;;;25.70;88.10;;;;;;5128191;27;20032;-56
2023/01/05 03:41:00;;;;;;;9.02;5.10;;;25.70;87.80;;;;;;5119683;28;20343;-55
2023/01/05 03:43:27;;;;;;;11.55;5.45;;;25.60;87.70;;;;;;5125791;28;20105;-55
2023/01/05 03:45:56;;;;;;;10.70;5.93;;;25.70;87.70;;;;;;5125817;28;20211;-55
2023/01/05 03:48:24;;;;;;;11.25;6.68;;;25.70;87.80;;;;;;5125914;28;20074;-55
2023/01/05 03:50:51;;;;;;;12.13;5.95;;;25.60;87.60;;;;;;5125912;28;20057;-57
2023/01/05 03:53:17;;;;;;;9.68;5.63;;;25.70;87.60;;;;;;5125914;28;20037;-55
2023/01/05 03:55:44;;;;;;;11.32;5.68;;;25.70;87.50;;;;;;5125456;28;20208;-56
2023/01/05 03:58:10;;;;;;;9.48;5.13;;;25.70;87.40;;;;;;5125871;28;20311;-56
2023/01/05 04:00:37;;;;;;;7.70;5.40;;;25.70;87.40;;;;;;5125792;28;20035;-56
2023/01/05 04:03:04;;;;;;;8.93;5.75;;;25.70;87.40;;;;;;5125644;28;20024;-57
2023/01/05 04:05:30;;;;;;;9.98;5.45;;;25.70;87.40;;;;;;5125546;28;20043;-57
2023/01/05 04:07:57;;;;;;;10.70;5.38;;;25.70;87.40;;;;;;5125577;28;20038;-57
2023/01/05 04:10:23;;;;;;;11.55;5.78;;;25.70;87.40;;;;;;5122898;28;20024;-57
2023/01/05 04:12:50;;;;;;;9.90;5.75;;;25.70;87.40;;;;;;5115005;28;20032;-56
2023/01/05 04:15:16;;;;;;;9.02;5.32;;;25.60;87.50;;;;;;5104333;28;20012;-56
2023/01/05 04:17:43;;;;;;;13.82;5.35;;;25.60;87.50;;;;;;5104688;28;20048;-56
2023/01/05 04:20:10;;;;;;;9.25;5.38;;;25.60;87.60;;;;;;5104584;28;20197;-59
2023/01/05 04:22:37;;;;;;;10.98;5.60;;;25.60;87.70;;;;;;5104831;28;20020;-55
2023/01/05 04:25:03;;;;;;;9.52;5.30;;;25.60;87.70;;;;;;5104717;28;20024;-55
2023/01/05 04:27:30;;;;;;;11.25;5.10;;;25.60;87.60;;;;;;5104619;28;20203;-55
2023/01/05 04:29:56;;;;;;;11.98;5.10;;;25.60;87.50;;;;;;5104569;28;20065;-62
2023/01/05 04:32:23;;;;;;;12.93;5.32;;;25.60;87.50;;;;;;5104583;28;20064;-56
2023/01/05 04:34:50;;;;;;;13.13;5.55;;;25.60;87.50;;;;;;5104724;28;20020;-56
2023/01/05 04:37:16;;;;;;;9.45;4.40;;;25.60;87.40;;;;;;5104694;28;20058;-57
2023/01/05 04:39:43;;;;;;;10.43;5.10;;;25.60;87.40;;;;;;5104514;28;20034;-58
2023/01/05 04:42:09;;;;;;;9.40;5.15;;;25.60;87.60;;;;;;5104244;28;20023;-56
2023/01/05 04:44:36;;;;;;;10.55;4.97;;;25.60;87.60;;;;;;5104530;28;20324;-54
2023/01/05 04:47:03;;;;;;;9.77;5.18;;;25.60;87.70;;;;;;5104491;28;20219;-57
2023/01/05 04:49:29;;;;;;;8.73;5.25;;;25.60;87.90;;;;;;5104251;28;20031;-56
2023/01/05 04:51:56;;;;;;;10.63;4.95;;;25.60;88.00;;;;;;5104499;28;20048;-56
2023/01/05 04:54:22;;;;;;;9.73;5.30;;;25.60;88.10;;;;;;5104755;28;20040;-55
2023/01/05 04:56:49;;;;;;;9.23;5.15;;;25.60;88.10;;;;;;5120613;28;20023;-55
2023/01/05 04:59:16;;;;;;;9.27;4.65;;;25.60;88.00;;;;;;5125024;28;20249;-55
2023/01/05 05:01:42;;;;;;;9.70;5.00;;;25.60;87.90;;;;;;5124615;28;20039;-56
2023/01/05 05:04:09;;;;;;;9.73;5.28;;;25.60;87.90;;;;;;5116913;28;20073;-56
2023/01/05 05:06:35;;;;;;;7.75;4.72;;;25.60;87.90;;;;;;5104696;28;20024;-56
2023/01/05 05:09:02;;;;;;;9.63;4.82;;;25.60;87.80;;;;;;5104541;28;20119;-55
2023/01/05 05:11:29;;;;;;;9.95;4.88;;;25.60;87.80;;;;;;5118045;28;20062;-56
2023/01/05 05:13:55;;;;;;;9.43;5.07;;;25.60;87.90;;;;;;5124735;28;20035;-56
2023/01/05 05:16:22;;;;;;;8.52;4.80;;;25.60;87.90;;;;;;5124302;28;20308;-57
2023/01/05 05:18:48;;;;;;;10.57;5.28;;;25.60;87.90;;;;;;5124103;28;20051;-56
2023/01/05 05:21:15;;;;;;;9.18;4.95;;;25.60;87.90;;;;;;5124427;28;20015;-56
2023/01/05 05:23:42;;;;;;;11.02;5.18;;;25.60;88.10;;;;;;5124919;28;20028;-56
2023/01/05 05:26:08;;;;;;;10.93;5.22;;;25.60;88.20;;;;;;5124295;28;20253;-55
2023/01/05 05:28:35;;;;;;;11.43;4.68;;;25.50;88.40;;;;;;5126978;28;20064;-61
2023/01/05 05:31:01;;;;;;;10.00;5.20;;;25.50;88.40;;;;;;5128473;28;20027;-54
2023/01/05 05:33:28;;;;;;;7.57;4.82;;;25.50;88.40;;;;;;5128642;28;20020;-56
2023/01/05 05:35:55;;;;;;;14.45;5.50;;;25.50;88.50;;;;;;5128027;28;20034;-56
2023/01/05 05:38:22;;;;;;;10.90;5.30;;;25.50;88.60;;;;;;5128154;28;20347;-60
2023/01/05 05:40:49;;;;;;;9.70;4.95;;;25.60;88.60;;;;;;5128048;28;20082;-62
2023/01/05 05:43:17;;;;;;;9.15;5.10;;;25.50;88.50;;;;;;5128272;28;20039;-55
2023/01/05 05:45:44;;;;;;;9.43;5.07;;;25.50;88.50;;;;;;5121841;28;20023;-61
2023/01/05 05:48:10;;;;;;;9.98;5.15;;;25.60;88.70;;;;;;5128321;28;20024;-56
2023/01/05 05:50:37;;;;;;;8.68;5.30;;;25.50;88.60;;;;;;5127949;28;20024;-55
2023/01/05 05:53:04;;;;;;;11.00;5.13;;;25.50;88.80;;;;;;5128236;28;20314;-57
2023/01/05 05:55:30;;;;;;;9.82;5.40;;;25.50;88.90;;;;;;5127802;28;20027;-57
2023/01/05 05:57:57;;;;;;;11.05;4.90;;;25.50;88.90;;;;;;5127908;28;20012;-55
2023/01/05 06:00:23;;;;;;;9.70;5.13;;;25.50;89.00;;;;;;5127584;28;20023;-58
2023/01/05 06:02:50;;;;;;;10.05;5.40;;;25.50;88.90;;;;;;5127749;28;20027;-54
2023/01/05 06:05:16;;;;;;;9.43;4.78;;;25.50;88.80;;;;;;5127623;28;20352;-55
2023/01/05 06:07:43;;;;;;;9.43;4.72;;;25.50;88.70;;;;;;5127550;28;20227;-56
2023/01/05 06:10:10;;;;;;;11.52;4.90;;;25.50;88.60;;;;;;5127785;28;20039;-56
2023/01/05 06:12:36;;;;;;;9.77;4.55;;;25.50;88.60;;;;;;5127536;28;20019;-56
2023/01/05 06:15:04;;;;;;;7.70;4.32;;;25.50;88.60;;;;;;5127497;28;20055;-56
2023/01/05 06:17:30;;;;;;;8.65;4.55;;;25.50;88.80;;;;;;5127303;28;20080;-56
2023/01/05 06:19:57;;;;;;;12.07;5.00;;;25.50;88.80;;;;;;5127247;28;20042;-55
2023/01/05 06:22:23;;;;;;;9.20;4.95;;;25.50;88.80;;;;;;5127441;28;20026;-55
2023/01/05 06:24:50;;;;;;;8.80;4.60;;;25.50;88.90;;;;;;5127526;28;20031;-56
2023/01/05 06:27:16;;;;;;;9.90;4.60;;;25.50;89.00;;;;;;5127108;28;20028;-55
2023/01/05 06:29:43;;;;;;;7.40;4.40;;;25.50;89.10;;;;;;5127494;28;20028;-55
2023/01/05 06:32:10;;;;;;;11.13;5.00;;;25.50;89.20;;;;;;5127052;28;20027;-59
2023/01/05 06:34:36;;;;;;;8.93;4.63;;;25.50;89.10;;;;;;5127406;28;20041;-56
2023/01/05 06:37:05;;;;;;;8.77;4.75;;;25.50;89.00;;;;;;5126948;28;20110;-55
2023/01/05 06:39:33;;;;;;;9.40;4.85;;;25.50;89.20;;;;;;5126594;28;20031;-56
2023/01/05 06:41:59;;;;;;;8.70;4.18;;;25.50;89.30;;;;;;5126893;28;20038;-55
2023/01/05 06:44:26;;;;;;;8.27;4.47;;;25.50;89.30;;;;;;5127489;28;20263;-56
2023/01/05 06:46:52;;;;;;;10.95;5.18;;;25.50;89.20;;;;;;5126924;28;20027;-55
2023/01/05 06:49:19;;;;;;;9.65;4.55;;;25.50;89.30;;;;;;5127139;28;20121;-61
2023/01/05 06:51:46;;;;;;;9.18;4.50;;;25.40;89.40;;;;;;5126824;28;20027;-56
2023/01/05 06:54:12;;;;;;;8.20;4.88;;;25.50;89.30;;;;;;5127337;28;20207;-56
2023/01/05 06:56:39;;;;;;;9.57;4.88;;;25.50;89.20;;;;;;5126834;28;20062;-58
2023/01/05 06:59:05;;;;;;;9.98;4.95;;;25.50;89.00;;;;;;5127017;28;20027;-56
2023/01/05 07:01:32;;;;;;;8.73;4.70;;;25.50;89.00;;;;;;5126684;28;20019;-57
2023/01/05 07:03:59;;;;;;;9.85;4.85;;;25.40;89.00;;;;;;5126546;28;20035;-58
2023/01/05 07:06:25;;;;;;;5.68;4.57;;;25.50;89.00;;;;;;5126158;28;20019;-56
2023/01/05 07:08:52;;;;;;;9.73;4.82;;;25.40;88.80;;;;;;5123434;28;20032;-56
2023/01/05 07:11:18;;;;;;;10.13;4.38;;;25.40;89.00;;;;;;5125244;28;20023;-57
2023/01/05 07:13:49;;;;;;;8.77;4.90;;;25.40;89.10;;;;;;5126484;28;20019;-56
2023/01/05 07:16:17;;;;;;;10.02;4.78;;;25.40;89.10;;;;;;5126402;28;20249;-56
2023/01/05 07:18:43;;;;;;;10.55;4.97;;;25.40;88.90;;;;;;5126239;28;20061;-55
2023/01/05 07:21:10;;;;;;;9.52;4.75;;;25.40;88.70;;;;;;5126091;28;20035;-56
2023/01/05 07:23:37;;;;;;;9.55;4.50;;;25.40;88.80;;;;;;5126543;28;20019;-56
2023/01/05 07:26:05;;;;;;;8.15;4.45;;;25.50;88.90;;;;;;5126051;28;20184;-57
2023/01/05 07:28:32;;;;;;;6.22;4.75;;;25.50;88.70;;;;;;5126317;28;20042;-56
2023/01/05 07:30:59;;;;;;;7.40;4.63;;;25.50;88.70;;;;;;5126087;28;20026;-57
2023/01/05 07:33:26;;;;;;;7.82;4.53;;;25.50;88.80;;;;;;5126345;28;20031;-56
2023/01/05 07:35:53;;;;;;;10.10;4.80;;;25.50;88.80;;;;;;5125802;28;20047;-56
2023/01/05 07:38:19;;;;;;;8.88;4.32;;;25.50;88.90;;;;;;5126217;28;20037;-57
2023/01/05 07:40:46;;;;;;;9.00;4.90;;;25.40;89.10;;;;;;5125871;28;20069;-56
2023/01/05 07:43:12;;;;;;;7.15;4.65;;;25.40;89.30;;;;;;5125941;28;20068;-58
2023/01/05 07:45:39;;;;;;;7.35;4.97;;;25.50;89.50;;;;;;5125944;28;20080;-60
2023/01/05 07:48:06;;;;;;;9.80;5.32;;;25.50;89.50;;;;;;5125538;28;20023;-56
2023/01/05 07:50:32;;;;;;;10.50;4.60;;;25.50;89.60;;;;;;5124768;28;20113;-57
2023/01/05 07:52:59;;;;;;;9.23;4.75;;;25.50;89.60;;;;;;5125700;28;20039;-56
2023/01/05 07:55:25;;;;;;;8.18;4.63;;;25.50;89.70;;;;;;5124026;28;20019;-57
2023/01/05 07:57:52;;;;;;;8.55;4.95;;;25.40;89.60;;;;;;5125504;28;20035;-55
2023/01/05 08:00:19;;;;;;;8.93;4.88;;;25.40;89.70;;;;;;5124551;28;20012;-57
2023/01/05 08:02:45;;;;;;;9.60;4.95;;;25.40;89.70;;;;;;5120853;28;20315;-58
2023/01/05 08:05:12;;;;;;;6.80;4.45;;;25.40;89.80;;;;;;5125027;28;20149;-57
2023/01/05 08:07:38;;;;;;;9.68;4.90;;;25.40;89.80;;;;;;5121443;27;20038;-55
2023/01/05 08:15:35;;;;;;;9.45;5.10;;;25.40;90.00;;;;;;5125262;28;20051;-55
2023/01/05 08:18:02;;;;;;;8.95;4.18;;;25.40;90.10;;;;;;5124805;28;20040;-56
2023/01/05 08:20:28;;;;;;;10.63;4.90;;;25.40;90.10;;;;;;5123242;28;20020;-56
2023/01/05 08:22:55;;;;;;;10.85;4.90;;;25.40;90.20;;;;;;5123624;28;20030;-58
2023/01/05 08:25:21;;;;;;;9.30;4.78;;;25.40;90.10;;;;;;5122315;28;20012;-56
2023/01/05 08:27:48;;;;;;;10.13;4.88;;;25.40;90.20;;;;;;5124368;28;20039;-55
2023/01/05 08:30:15;;;;;;;7.95;4.70;;;25.40;90.10;;;;;;5124989;28;20337;-58
2023/01/05 08:32:42;;;;;;;9.65;4.88;;;25.40;90.10;;;;;;5124773;28;20035;-56
2023/01/05 08:35:09;;;;;;;8.65;5.18;;;25.40;90.00;;;;;;5123565;28;20015;-59
2023/01/05 08:37:36;;;;;;;7.80;4.72;;;25.40;90.00;;;;;;5124602;28;20069;-55
2023/01/05 08:40:03;;;;;;;7.72;4.40;;;25.40;90.00;;;;;;5124750;28;20038;-56
2023/01/05 08:42:29;;;;;;;10.88;5.13;;;25.40;90.00;;;;;;5123392;28;20357;-56
2023/01/05 08:44:56;;;;;;;10.65;4.75;;;25.40;90.10;;;;;;5124650;28;20032;-56
2023/01/05 08:47:22;;;;;;;8.85;4.45;;;25.40;90.10;;;;;;5124322;28;20031;-56
2023/01/05 08:49:49;;;;;;;9.02;4.43;;;25.40;90.10;;;;;;5124868;28;20023;-56
2023/01/05 08:52:16;;;;;;;12.35;4.60;;;25.40;90.10;;;;;;5124604;28;20034;-57
2023/01/05 08:54:42;;;;;;;9.05;4.13;;;25.40;90.10;;;;;;5124422;28;20019;-57
2023/01/05 08:57:09;;;;;;;9.77;4.85;;;25.40;90.10;;;;;;5124400;28;20031;-56
2023/01/05 08:59:35;;;;;;;9.38;4.50;;;25.40;90.10;;;;;;5124117;28;20024;-57
2023/01/05 09:02:02;;;;;;;8.52;4.90;;;25.40;90.00;;;;;;5124114;28;20034;-56
2023/01/05 09:04:29;;;;;;;9.93;4.57;;;25.40;90.00;;;;;;5121708;28;20323;-55
2023/01/05 09:06:55;;;;;;;12.38;4.53;;;25.40;90.00;;;;;;5124142;28;20038;-57
2023/01/05 09:09:23;;;;;;;9.43;4.40;;;25.40;90.00;;;;;;5124690;28;20102;-58
2023/01/05 09:11:50;;;;;;;7.13;4.80;;;25.40;89.90;;;;;;5124682;28;20330;-56
2023/01/05 09:14:17;;;;;;;8.85;4.70;;;25.40;90.00;;;;;;5124879;28;20028;-57
2023/01/05 09:16:44;;;;;;;10.68;4.90;;;25.40;90.00;;;;;;5124124;28;20032;-56
2023/01/05 09:19:11;;;;;;;8.88;4.57;;;25.40;90.00;;;;;;5124184;28;20282;-55
2023/01/05 09:21:40;;;;;;;11.20;5.38;;;25.40;90.00;;;;;;5124369;28;20032;-56
2023/01/05 09:24:11;;;;;;;8.52;5.05;;;25.40;90.00;;;;;;5124521;28;20181;-56
2023/01/05 09:26:38;;;;;;;10.18;5.10;;;25.40;90.00;;;;;;5123600;28;20021;-57
2023/01/05 09:29:05;;;;;;;9.75;5.15;;;25.40;90.00;;;;;;5118141;28;20069;-56
2023/01/05 09:31:31;;;;;;;9.20;5.00;;;25.40;90.00;;;;;;5123458;28;20015;-57
2023/01/05 09:33:58;;;;;;;9.43;4.90;;;25.40;89.80;;;;;;5124126;28;20379;-55
2023/01/05 09:36:25;;;;;;;11.15;4.93;;;25.40;89.60;;;;;;5124094;28;20046;-56
2023/01/05 09:38:54;;;;;;;9.63;5.30;;;25.50;89.60;;;;;;5124295;28;20035;-56
2023/01/05 09:41:23;;;;;;;8.85;5.28;;;25.40;89.40;;;;;;5124302;28;20042;-56
2023/01/05 09:43:57;;;;;;;7.50;4.82;;;25.50;89.30;;;;;;5124543;28;20024;-55
2023/01/05 09:46:32;;;;;;;8.73;5.15;;;25.40;89.10;;;;;;5124105;28;20359;-55
2023/01/05 09:49:02;;;;;;;7.15;4.18;;;25.50;89.00;;;;;;5116541;28;20023;-55
2023/01/05 09:51:29;;;;;;;12.50;5.38;;;25.50;88.90;;;;;;5122234;28;20032;-55
2023/01/05 09:53:58;;;;;;;8.73;5.10;;;25.50;88.80;;;;;;5124433;28;20024;-55
2023/01/05 09:56:36;;;;;;;8.57;4.60;;;25.50;88.80;;;;;;5123894;28;20318;-55
2023/01/05 09:59:11;;;;;;;9.75;5.47;;;25.50;88.70;;;;;;5124099;28;20099;-55
2023/01/05 10:01:39;;;;;;;10.85;5.45;;;25.50;88.60;;;;;;5123900;28;20019;-55
2023/01/05 10:04:13;;;;;;;7.45;4.82;;;25.50;88.80;;;;;;5124153;28;20042;-56
2023/01/05 10:06:45;;;;;;;8.85;4.90;;;25.50;88.50;;;;;;5122505;28;20057;-56
2023/01/05 10:09:21;;;;;;;7.10;4.90;;;25.50;88.40;;;;;;5122173;28;20191;-56
2023/01/05 10:14:59;;;;;;;8.15;4.72;;;25.50;88.30;;;;;;5122796;27;20015;-55
2023/01/05 10:17:28;;;;;;;7.97;5.25;;;25.50;88.30;;;;;;5127178;28;20036;-55
2023/01/05 10:19:55;;;;;;;10.95;5.28;;;25.50;88.20;;;;;;5122752;28;20223;-54
2023/01/05 10:22:39;;;;;;;7.43;4.50;;;25.50;88.20;;;;;;5125998;28;20027;-54
2023/01/05 10:25:20;;;;;;;8.75;5.00;;;25.50;88.20;;;;;;5127206;28;20027;-54
2023/01/05 10:27:57;;;;;;;11.38;5.32;;;25.50;88.20;;;;;;5127275;28;20028;-54
2023/01/05 10:30:54;;;;;;;8.35;5.18;;;25.50;88.20;;;;;;5127227;28;20338;-55
2023/01/05 10:33:39;;;;;;;12.32;5.85;;;25.50;88.20;;;;;;5089626;28;20036;-55
2023/01/05 10:36:37;;;;;;;8.75;4.63;;;25.50;88.20;;;;;;5106992;28;20027;-55
2023/01/05 10:39:21;;;;;;;7.05;4.93;;;25.50;88.20;;;;;;5107004;28;20330;-56
2023/01/05 10:41:58;;;;;;;8.55;5.18;;;25.50;88.30;;;;;;5106646;28;20069;-56
2023/01/05 10:44:39;;;;;;;7.40;4.72;;;25.50;88.40;;;;;;5107139;28;20036;-56
2023/01/05 10:47:11;;;;;;;8.70;4.93;;;25.50;88.40;;;;;;5112914;28;20321;-55
2023/01/05 10:49:41;;;;;;;10.48;5.88;;;25.50;88.40;;;;;;5124944;28;20110;-55
2023/01/05 10:52:17;;;;;;;13.10;7.85;;;25.50;88.30;;;;;;5124511;28;20027;-56
2023/01/05 10:54:49;;;;;;;13.43;8.80;;;25.50;88.60;;;;;;5125555;28;20424;-56
2023/01/05 10:57:36;;;;;;;10.83;6.57;;;25.50;88.80;;;;;;5118443;28;20020;-56
2023/01/05 11:00:14;;;;;;;48.08;31.75;;;25.50;88.80;;;;;;5114731;28;20039;-55
2023/01/05 11:03:06;;;;;;;35.40;22.98;;;25.40;88.10;;;;;;5124985;28;20075;-54
2023/01/05 11:05:40;;;;;;;23.30;16.65;;;25.30;87.90;;;;;;5109581;28;20040;-56
2023/01/05 11:08:14;;;;;;;27.17;18.80;;;25.20;89.10;;;;;;5121475;28;20335;-56
2023/01/05 11:11:01;;;;;;;29.70;20.88;;;25.10;89.20;;;;;;5123826;28;20023;-55
2023/01/05 11:13:41;;;;;;;24.95;16.75;;;25.20;89.20;;;;;;5125966;28;20177;-56
2023/01/05 11:16:14;;;;;;;22.30;15.15;;;25.30;89.20;;;;;;5124642;28;20047;-55
2023/01/05 11:18:56;;;;;;;18.50;12.27;;;25.30;89.00;;;;;;5121235;28;20081;-60
2023/01/05 11:21:30;;;;;;;18.20;12.25;;;25.30;88.80;;;;;;5126326;28;20083;-55
2023/01/05 11:23:58;;;;;;;15.38;10.27;;;25.40;88.70;;;;;;5122421;28;20032;-57
2023/01/05 11:26:26;;;;;;;15.13;9.93;;;25.40;88.70;;;;;;5119206;28;20042;-56
2023/01/05 11:29:08;;;;;;;13.50;9.55;;;25.40;88.50;;;;;;5123672;28;20025;-56
2023/01/05 11:31:42;;;;;;;13.77;8.87;;;25.50;88.50;;;;;;5124263;28;20019;-59
2023/01/05 11:34:08;;;;;;;11.68;8.00;;;25.50;88.10;;;;;;5125330;28;20296;-57
2023/01/05 11:36:36;;;;;;;12.88;7.47;;;25.50;88.00;;;;;;5124088;28;20382;-56
2023/01/05 11:39:02;;;;;;;13.07;7.63;;;25.50;88.00;;;;;;5126252;28;20053;-56
2023/01/05 11:41:29;;;;;;;10.60;7.28;;;25.60;87.80;;;;;;5125981;28;20019;-58
2023/01/05 11:43:59;;;;;;;11.02;7.10;;;25.60;87.80;;;;;;5126315;28;20094;-59
2023/01/05 11:46:39;;;;;;;10.63;7.07;;;25.60;87.80;;;;;;5125494;28;20023;-56
2023/01/05 11:49:06;;;;;;;9.38;6.88;;;25.60;87.50;;;;;;5125353;28;20032;-56
2023/01/05 11:51:41;;;;;;;8.82;6.78;;;25.60;87.30;;;;;;5124482;28;20016;-57
2023/01/05 11:54:30;;;;;;;10.02;7.15;;;25.70;87.10;;;;;;5125273;28;20032;-56
2023/01/05 11:57:26;;;;;;;10.27;6.57;;;25.70;86.90;;;;;;5123721;28;20019;-56
2023/01/05 11:59:54;;;;;;;11.35;7.32;;;25.70;86.70;;;;;;5104241;28;20043;-57
2023/01/05 12:02:42;;;;;;;9.48;7.43;;;25.70;86.80;;;;;;5125687;28;20260;-57
2023/01/05 12:05:27;;;;;;;9.35;6.85;;;25.70;86.50;;;;;;5125471;28;20184;-58
2023/01/05 12:08:00;;;;;;;9.10;7.15;;;25.70;86.40;;;;;;5125379;28;20034;-56
2023/01/05 12:10:57;;;;;;;12.57;7.70;;;25.70;86.30;;;;;;5125200;28;20030;-58
2023/01/05 12:14:00;;;;;;;13.43;7.88;;;25.70;86.00;;;;;;5125432;28;20299;-61
2023/01/05 12:16:36;;;;;;;11.40;7.47;;;25.80;86.00;;;;;;5124297;28;20050;-60
2023/01/05 12:19:24;;;;;;;10.20;7.55;;;25.80;86.00;;;;;;5124833;28;20069;-59
2023/01/05 12:22:09;;;;;;;11.18;7.82;;;25.80;86.10;;;;;;5122687;28;20410;-58
2023/01/05 12:24:41;;;;;;;10.63;7.70;;;25.80;86.20;;;;;;5114111;28;20031;-57
2023/01/05 12:27:26;;;;;;;;;;;25.80;85.80;;;;;;5119056;28;20047;-56
2023/01/05 12:30:17;;;;;;;11.20;7.95;;;25.80;86.00;;;;;;5125007;28;20233;-56
2023/01/05 12:32:49;;;;;;;10.95;8.07;;;25.90;86.20;;;;;;5122921;28;20027;-57
2023/01/05 12:35:53;;;;;;;10.30;7.88;;;25.90;86.20;;;;;;5124987;28;20018;-56
2023/01/05 12:38:27;;;;;;;9.45;7.30;;;25.90;85.90;;;;;;5125028;28;20197;-58
2023/01/05 12:41:14;;;;;;;10.65;8.25;;;25.90;86.00;;;;;;5124676;28;20023;-56
2023/01/05 12:43:40;;;;;;;10.20;7.47;;;26.00;86.30;;;;;;5124288;28;20044;-59
2023/01/05 12:46:19;;;;;;;10.43;7.97;;;26.00;86.10;;;;;;5124819;28;20027;-58
2023/01/05 12:49:05;;;;;;;10.27;7.93;;;26.00;86.10;;;;;;5120597;28;20035;-57
2023/01/05 12:52:10;;;;;;;10.75;8.30;;;26.10;86.10;;;;;;5123632;28;20083;-58
2023/01/05 12:54:49;;;;;;;11.10;7.85;;;26.10;86.10;;;;;;5022478;28;20038;-58
2023/01/05 12:57:40;;;;;;;11.43;8.30;;;26.10;86.20;;;;;;5094776;28;20095;-60
2023/01/05 13:00:14;;;;;;;10.60;7.85;;;26.10;86.10;;;;;;5104133;28;20032;-58
2023/01/05 13:02:51;;;;;;;10.45;7.72;;;26.10;86.00;;;;;;5115636;28;20031;-58
2023/01/05 13:05:55;;;;;;;10.98;7.88;;;26.20;86.10;;;;;;5123898;28;20073;-55
2023/01/05 13:08:43;;;;;;;10.60;8.05;;;26.20;85.90;;;;;;5124369;28;20387;-58
2023/01/05 13:11:22;;;;;;;14.93;9.30;;;26.20;85.90;;;;;;5124819;28;20035;-57
2023/01/05 13:13:57;;;;;;;14.13;9.07;;;26.20;86.00;;;;;;5123763;28;20211;-60
2023/01/05 13:16:28;;;;;;;17.15;9.10;;;26.30;86.00;;;;;;5124260;28;20036;-58
2023/01/05 13:19:09;;;;;;;14.70;9.63;;;26.30;86.00;;;;;;5123869;28;20088;-56
2023/01/05 13:21:41;;;;;;;14.17;9.23;;;26.30;86.00;;;;;;5124284;28;20219;-57
2023/01/05 13:24:39;;;;;;;15.73;9.60;;;26.30;86.00;;;;;;5124510;28;20020;-58
2023/01/05 13:27:07;;;;;;;15.35;9.77;;;26.30;86.00;;;;;;5100557;28;20107;-57
2023/01/05 13:29:38;;;;;;;15.77;9.15;;;26.30;86.10;;;;;;5103827;28;20020;-62
2023/01/05 13:32:11;;;;;;;15.15;9.38;;;26.30;86.50;;;;;;5103535;28;20032;-61
2023/01/05 13:34:49;;;;;;;17.38;8.88;;;26.30;86.40;;;;;;5103529;28;20066;-55
2023/01/05 13:37:44;;;;;;;14.68;8.77;;;26.30;86.20;;;;;;5103849;28;20027;-57
2023/01/05 13:40:20;;;;;;;15.00;9.00;;;26.30;86.40;;;;;;5103594;28;20443;-55
2023/01/05 13:43:13;;;;;;;13.63;8.10;;;26.40;86.60;;;;;;5103580;28;20096;-56